LPMA

Details ICAO LPMA (FNC)
Name Madeira/Funchal - Cristiano Ronaldo
Region Portugal
Timezone Atlantic/Madeira (UTC+0.0)
Plans Departing 3541
Arriving 5748
Stats Elevation 189 ft / 58 m (AMSL)
Location 32.697900° -16.774400°
Runways 1
Magnetic Variation 4.587° W
Sunrise 2021-03-01 07:36:19 UTC / 2021-03-01 07:36:19 Local
Sunset 2021-03-01 19:05:29 UTC / 2021-03-01 19:05:29 Local
Advertisement - Login to hide

Runways

ID Width Length Bearing (true/mag) Surface Threshold Overrun Markings Lighting
05 148 ft / 45 m 9,133 ft / 2,784 m 44.60° / 49.18° ASPHALT 482 ft / 147 m 0 ft / 0 m PREC-APP CENTERLINE EDGE THRESHOLD TDZ REIL-OMNI
23 148 ft / 45 m 9,133 ft / 2,784 m 224.61° / 229.20° ASPHALT 482 ft / 147 m 0 ft / 0 m PREC-APP CENTERLINE EDGE THRESHOLD TDZ REIL-OMNI

Map

Weather


0- 5 10 15 20 25 30 35+ Temperature / °C

Clouds and Precipitation
Forecast for 2021-03-01 12:00 UTC. Updated 3 hours ago

Ground ~20,000 ft ~40,000 ft Winds

METAR

LPMA 011300Z 02009KT 340V060 9999 SCT015 SCT030 17/10 Q1020

TAF

TAF LPMA 011100Z 0112/0212 01010KT 9999 SCT015 TEMPO 0112/0212 FEW015 BKN030 BECMG 0210/0212 06010KT

Frequencies

Tower 118.35 MHz
Approach 119.20 MHz
Approach 119.60 MHz
Recorded 124.40 MHz ATIS
Warning: Do not use this data for real-world aviation or navigation. No guarantee of current accuracy is given.